sensor_id;sensor_type;location;lat;lon;timestamp;pressure;altitude;pressure_sealevel;temperature;humidity
250;BME280;109;19.806;-70.704;2022-09-20T00:01:14;100079.38;;;21.69;83.87
250;BME280;109;19.806;-70.704;2022-09-20T00:03:43;100076.69;;;21.51;85.07
250;BME280;109;19.806;-70.704;2022-09-20T00:06:13;100087.81;;;21.42;84.34
250;BME280;109;19.806;-70.704;2022-09-20T00:08:40;100101.53;;;21.16;84.83
250;BME280;109;19.806;-70.704;2022-09-20T00:11:09;100065.97;;;21.53;85.37
250;BME280;109;19.806;-70.704;2022-09-20T00:13:37;100079.56;;;21.47;84.38
250;BME280;109;19.806;-70.704;2022-09-20T00:16:10;100071.00;;;21.59;84.29
250;BME280;109;19.806;-70.704;2022-09-20T00:18:37;100069.50;;;21.71;83.94
250;BME280;109;19.806;-70.704;2022-09-20T00:21:03;100052.41;;;21.75;83.66
250;BME280;109;19.806;-70.704;2022-09-20T00:23:31;100053.44;;;21.72;83.85
250;BME280;109;19.806;-70.704;2022-09-20T00:26:00;100048.91;;;21.91;83.67
250;BME280;109;19.806;-70.704;2022-09-20T00:28:27;100031.00;;;22.11;83.21
250;BME280;109;19.806;-70.704;2022-09-20T00:30:55;100030.34;;;22.23;83.11
250;BME280;109;19.806;-70.704;2022-09-20T00:33:23;100034.09;;;22.19;82.71
250;BME280;109;19.806;-70.704;2022-09-20T00:35:49;100062.88;;;22.12;82.22
250;BME280;109;19.806;-70.704;2022-09-20T00:38:16;100056.78;;;22.10;82.51
250;BME280;109;19.806;-70.704;2022-09-20T00:40:43;100057.66;;;22.11;82.19
250;BME280;109;19.806;-70.704;2022-09-20T00:43:16;100026.78;;;22.07;82.18
250;BME280;109;19.806;-70.704;2022-09-20T00:45:47;100033.00;;;22.23;81.67
250;BME280;109;19.806;-70.704;2022-09-20T00:48:23;100051.56;;;22.24;81.72
250;BME280;109;19.806;-70.704;2022-09-20T00:51:04;100052.59;;;22.22;81.30
250;BME280;109;19.806;-70.704;2022-09-20T00:53:42;100065.16;;;22.20;81.42
250;BME280;109;19.806;-70.704;2022-09-20T00:56:17;100057.50;;;22.29;81.42
250;BME280;109;19.806;-70.704;2022-09-20T00:58:50;100051.47;;;22.26;81.51
250;BME280;109;19.806;-70.704;2022-09-20T01:01:19;100054.94;;;22.28;80.94
250;BME280;109;19.806;-70.704;2022-09-20T01:03:46;100070.50;;;22.03;81.25
250;BME280;109;19.806;-70.704;2022-09-20T01:06:14;100084.94;;;21.99;81.27
250;BME280;109;19.806;-70.704;2022-09-20T01:08:46;100067.03;;;22.18;81.18
250;BME280;109;19.806;-70.704;2022-09-20T01:11:14;100055.44;;;22.19;81.02
250;BME280;109;19.806;-70.704;2022-09-20T01:13:40;100037.19;;;22.11;80.95
250;BME280;109;19.806;-70.704;2022-09-20T01:16:07;100025.13;;;22.04;80.77
250;BME280;109;19.806;-70.704;2022-09-20T01:18:34;100022.03;;;22.12;80.89
250;BME280;109;19.806;-70.704;2022-09-20T01:21:03;100035.63;;;22.07;81.09
250;BME280;109;19.806;-70.704;2022-09-20T01:28:47;100043.00;;;22.02;80.20
250;BME280;109;19.806;-70.704;2022-09-20T01:31:25;100038.22;;;22.09;80.22
250;BME280;109;19.806;-70.704;2022-09-20T01:34:02;100035.75;;;22.21;80.30
250;BME280;109;19.806;-70.704;2022-09-20T01:36:38;100022.88;;;21.97;80.10
250;BME280;109;19.806;-70.704;2022-09-20T01:42:16;100024.78;;;21.94;80.10
250;BME280;109;19.806;-70.704;2022-09-20T01:50:34;100055.22;;;22.06;80.44
250;BME280;109;19.806;-70.704;2022-09-20T01:56:12;100044.63;;;22.22;79.95
250;BME280;109;19.806;-70.704;2022-09-20T02:19:11;100046.06;;;22.27;79.88
250;BME280;109;19.806;-70.704;2022-09-20T02:27:58;100060.41;;;22.25;79.58
250;BME280;109;19.806;-70.704;2022-09-20T02:39:50;100103.28;;;22.38;78.88
250;BME280;109;19.806;-70.704;2022-09-20T02:43:19;100095.94;;;22.25;80.20
250;BME280;109;19.806;-70.704;2022-09-20T02:46:04;100084.31;;;22.44;79.34
250;BME280;109;19.806;-70.704;2022-09-20T02:48:50;100067.91;;;22.51;79.25
250;BME280;109;19.806;-70.704;2022-09-20T02:54:44;100080.63;;;22.46;78.93
250;BME280;109;19.806;-70.704;2022-09-20T03:00:27;100084.00;;;22.50;79.30
250;BME280;109;19.806;-70.704;2022-09-20T03:03:41;100082.13;;;22.35;79.21
250;BME280;109;19.806;-70.704;2022-09-20T03:09:06;100089.59;;;22.28;79.27
250;BME280;109;19.806;-70.704;2022-09-20T03:12:18;100080.56;;;22.48;78.69
250;BME280;109;19.806;-70.704;2022-09-20T03:15:26;100085.69;;;22.51;78.89
250;BME280;109;19.806;-70.704;2022-09-20T03:18:16;100073.41;;;22.48;78.72
250;BME280;109;19.806;-70.704;2022-09-20T03:27:27;100070.66;;;22.50;79.00
250;BME280;109;19.806;-70.704;2022-09-20T03:42:06;100112.28;;;22.52;78.72
250;BME280;109;19.806;-70.704;2022-09-20T03:51:12;100115.03;;;22.51;78.63
250;BME280;109;19.806;-70.704;2022-09-20T04:00:56;100122.47;;;22.61;78.47
250;BME280;109;19.806;-70.704;2022-09-20T04:09:24;100116.09;;;22.64;78.51
250;BME280;109;19.806;-70.704;2022-09-20T04:12:27;100107.06;;;22.67;78.26
250;BME280;109;19.806;-70.704;2022-09-20T04:26:34;100119.34;;;22.53;77.71
250;BME280;109;19.806;-70.704;2022-09-20T04:29:35;100119.78;;;22.46;78.01
250;BME280;109;19.806;-70.704;2022-09-20T04:32:34;100128.16;;;22.38;77.89
250;BME280;109;19.806;-70.704;2022-09-20T04:35:42;100129.34;;;22.33;77.89
250;BME280;109;19.806;-70.704;2022-09-20T04:38:50;100141.81;;;22.32;78.02
250;BME280;109;19.806;-70.704;2022-09-20T04:57:16;100140.66;;;22.20;77.78
250;BME280;109;19.806;-70.704;2022-09-20T05:00:16;100135.84;;;22.27;77.68
250;BME280;109;19.806;-70.704;2022-09-20T05:02:55;100133.44;;;22.22;77.62
250;BME280;109;19.806;-70.704;2022-09-20T05:09:12;100144.69;;;22.27;77.27
250;BME280;109;19.806;-70.704;2022-09-20T05:12:00;100140.38;;;22.25;77.58
250;BME280;109;19.806;-70.704;2022-09-20T05:17:37;100135.16;;;22.23;77.20
250;BME280;109;19.806;-70.704;2022-09-20T05:35:05;100164.72;;;22.19;77.34
250;BME280;109;19.806;-70.704;2022-09-20T05:37:54;100158.09;;;22.26;77.31
250;BME280;109;19.806;-70.704;2022-09-20T05:50:23;100181.66;;;22.18;76.88
250;BME280;109;19.806;-70.704;2022-09-20T05:56:18;100175.84;;;22.27;76.92
250;BME280;109;19.806;-70.704;2022-09-20T06:08:01;100160.84;;;22.24;76.64
250;BME280;109;19.806;-70.704;2022-09-20T06:21:53;100183.91;;;22.25;76.92
250;BME280;109;19.806;-70.704;2022-09-20T06:27:17;100184.94;;;22.23;76.53
250;BME280;109;19.806;-70.704;2022-09-20T06:30:12;100193.69;;;22.25;76.57
250;BME280;109;19.806;-70.704;2022-09-20T06:32:58;100197.16;;;22.27;76.39
250;BME280;109;19.806;-70.704;2022-09-20T06:39:10;100194.41;;;22.28;76.32
250;BME280;109;19.806;-70.704;2022-09-20T06:42:28;100200.53;;;22.30;76.46
250;BME280;109;19.806;-70.704;2022-09-20T06:45:08;100208.22;;;22.37;76.37
250;BME280;109;19.806;-70.704;2022-09-20T06:47:35;100222.28;;;22.40;76.56
250;BME280;109;19.806;-70.704;2022-09-20T06:50:15;100219.84;;;22.36;76.42
250;BME280;109;19.806;-70.704;2022-09-20T06:52:42;100220.47;;;22.41;76.01
250;BME280;109;19.806;-70.704;2022-09-20T06:55:28;100210.66;;;22.41;76.20
250;BME280;109;19.806;-70.704;2022-09-20T06:58:02;100231.94;;;22.43;76.12
250;BME280;109;19.806;-70.704;2022-09-20T07:00:43;100217.81;;;22.41;76.18
250;BME280;109;19.806;-70.704;2022-09-20T07:03:11;100220.59;;;22.38;76.20
250;BME280;109;19.806;-70.704;2022-09-20T07:05:53;100228.84;;;22.33;76.18
250;BME280;109;19.806;-70.704;2022-09-20T07:08:20;100229.72;;;22.34;76.36
250;BME280;109;19.806;-70.704;2022-09-20T07:11:08;100227.28;;;22.29;76.08
250;BME280;109;19.806;-70.704;2022-09-20T07:13:42;100224.84;;;22.24;75.94
250;BME280;109;19.806;-70.704;2022-09-20T07:16:31;100229.63;;;22.35;76.09
250;BME280;109;19.806;-70.704;2022-09-20T07:19:04;100231.66;;;22.30;75.87
250;BME280;109;19.806;-70.704;2022-09-20T07:21:45;100244.13;;;22.29;75.98
250;BME280;109;19.806;-70.704;2022-09-20T07:24:11;100244.69;;;22.19;75.16
250;BME280;109;19.806;-70.704;2022-09-20T07:27:02;100232.53;;;22.30;75.64
250;BME280;109;19.806;-70.704;2022-09-20T07:29:37;100223.50;;;22.33;75.31
250;BME280;109;19.806;-70.704;2022-09-20T07:32:24;100229.78;;;22.32;75.20
250;BME280;109;19.806;-70.704;2022-09-20T07:35:04;100221.56;;;22.37;75.42
250;BME280;109;19.806;-70.704;2022-09-20T07:37:30;100224.94;;;22.40;75.41
250;BME280;109;19.806;-70.704;2022-09-20T07:40:12;100231.25;;;22.38;74.82
250;BME280;109;19.806;-70.704;2022-09-20T07:42:39;100222.19;;;22.42;74.85
250;BME280;109;19.806;-70.704;2022-09-20T07:45:19;100209.72;;;22.42;74.87
250;BME280;109;19.806;-70.704;2022-09-20T07:47:46;100209.94;;;22.38;74.46
250;BME280;109;19.806;-70.704;2022-09-20T07:50:25;100223.84;;;22.44;74.59
250;BME280;109;19.806;-70.704;2022-09-20T07:52:55;100211.47;;;22.43;74.53
250;BME280;109;19.806;-70.704;2022-09-20T07:55:35;100222.91;;;22.45;74.44
250;BME280;109;19.806;-70.704;2022-09-20T07:58:08;100222.56;;;22.51;74.12
250;BME280;109;19.806;-70.704;2022-09-20T08:00:53;100220.63;;;22.55;74.23
250;BME280;109;19.806;-70.704;2022-09-20T08:03:28;100222.25;;;22.57;74.05
250;BME280;109;19.806;-70.704;2022-09-20T08:06:11;100221.31;;;22.58;73.63
250;BME280;109;19.806;-70.704;2022-09-20T08:08:47;100238.03;;;22.62;73.81
250;BME280;109;19.806;-70.704;2022-09-20T08:11:28;100235.53;;;22.59;73.66
250;BME280;109;19.806;-70.704;2022-09-20T08:13:57;100240.00;;;22.58;73.40
250;BME280;109;19.806;-70.704;2022-09-20T08:16:41;100272.38;;;22.51;73.05
250;BME280;109;19.806;-70.704;2022-09-20T08:19:22;100271.28;;;22.55;73.08
250;BME280;109;19.806;-70.704;2022-09-20T08:22:02;100270.28;;;22.57;72.78
250;BME280;109;19.806;-70.704;2022-09-20T08:24:29;100272.22;;;22.54;73.09
250;BME280;109;19.806;-70.704;2022-09-20T08:27:09;100282.19;;;22.68;72.47
250;BME280;109;19.806;-70.704;2022-09-20T08:29:37;100301.78;;;22.67;72.38
250;BME280;109;19.806;-70.704;2022-09-20T08:32:23;100295.91;;;22.77;72.53
250;BME280;109;19.806;-70.704;2022-09-20T08:35:11;100304.16;;;22.73;72.38
250;BME280;109;19.806;-70.704;2022-09-20T08:37:45;100298.03;;;22.71;72.33
250;BME280;109;19.806;-70.704;2022-09-20T08:40:28;100279.72;;;22.80;72.36
250;BME280;109;19.806;-70.704;2022-09-20T08:42:56;100277.31;;;22.76;72.10
250;BME280;109;19.806;-70.704;2022-09-20T08:45:35;100269.47;;;22.73;71.82
250;BME280;109;19.806;-70.704;2022-09-20T08:48:06;100257.06;;;22.72;71.91
250;BME280;109;19.806;-70.704;2022-09-20T08:50:50;100274.25;;;22.83;71.63
250;BME280;109;19.806;-70.704;2022-09-20T08:53:17;100282.88;;;22.88;71.60
250;BME280;109;19.806;-70.704;2022-09-20T08:55:59;100295.16;;;22.91;71.52
250;BME280;109;19.806;-70.704;2022-09-20T08:58:26;100307.50;;;22.93;71.49
250;BME280;109;19.806;-70.704;2022-09-20T09:01:09;100320.91;;;22.92;71.48
250;BME280;109;19.806;-70.704;2022-09-20T09:03:36;100338.06;;;22.88;71.05
250;BME280;109;19.806;-70.704;2022-09-20T09:06:18;100355.59;;;22.92;70.74
250;BME280;109;19.806;-70.704;2022-09-20T09:08:55;100337.13;;;22.89;70.08
250;BME280;109;19.806;-70.704;2022-09-20T09:11:40;100347.44;;;22.95;70.01
250;BME280;109;19.806;-70.704;2022-09-20T09:14:11;100346.31;;;23.01;70.59
250;BME280;109;19.806;-70.704;2022-09-20T09:17:12;100340.31;;;22.95;70.23
250;BME280;109;19.806;-70.704;2022-09-20T09:19:55;100349.25;;;22.94;70.11
250;BME280;109;19.806;-70.704;2022-09-20T09:25:20;100329.00;;;23.08;69.80
250;BME280;109;19.806;-70.704;2022-09-20T09:28:11;100350.53;;;23.05;69.63
250;BME280;109;19.806;-70.704;2022-09-20T09:31:22;100356.56;;;23.08;69.06
250;BME280;109;19.806;-70.704;2022-09-20T09:34:24;100338.50;;;23.13;69.10
250;BME280;109;19.806;-70.704;2022-09-20T09:37:23;100336.44;;;23.18;68.42
250;BME280;109;19.806;-70.704;2022-09-20T09:40:16;100325.91;;;23.15;68.65
250;BME280;109;19.806;-70.704;2022-09-20T09:42:58;100332.75;;;23.21;68.74
250;BME280;109;19.806;-70.704;2022-09-20T09:45:38;100337.22;;;23.20;68.78
250;BME280;109;19.806;-70.704;2022-09-20T09:48:22;100358.50;;;23.22;68.64
250;BME280;109;19.806;-70.704;2022-09-20T09:51:15;100372.88;;;23.19;68.69
250;BME280;109;19.806;-70.704;2022-09-20T09:53:49;100388.66;;;23.24;68.75
250;BME280;109;19.806;-70.704;2022-09-20T09:56:56;100368.16;;;23.24;68.60
250;BME280;109;19.806;-70.704;2022-09-20T10:06:08;100339.75;;;23.23;67.25
250;BME280;109;19.806;-70.704;2022-09-20T10:20:24;100333.00;;;23.16;66.84
250;BME280;109;19.806;-70.704;2022-09-20T10:29:37;100329.63;;;23.46;66.72
250;BME280;109;19.806;-70.704;2022-09-20T10:41:31;100336.75;;;23.62;66.07
250;BME280;109;19.806;-70.704;2022-09-20T10:48:04;100330.19;;;23.68;65.48
250;BME280;109;19.806;-70.704;2022-09-20T10:56:43;100370.44;;;23.65;64.91
250;BME280;109;19.806;-70.704;2022-09-20T11:02:20;100380.00;;;23.69;64.99
250;BME280;109;19.806;-70.704;2022-09-20T11:07:34;100398.13;;;23.80;64.61
250;BME280;109;19.806;-70.704;2022-09-20T11:11:03;100415.88;;;23.81;64.83
250;BME280;109;19.806;-70.704;2022-09-20T11:13:29;100418.47;;;23.82;64.60
250;BME280;109;19.806;-70.704;2022-09-20T11:16:26;100427.09;;;23.87;64.80
250;BME280;109;19.806;-70.704;2022-09-20T11:19:04;100420.38;;;23.96;65.09
250;BME280;109;19.806;-70.704;2022-09-20T11:21:46;100427.44;;;23.97;64.88
250;BME280;109;19.806;-70.704;2022-09-20T11:26:48;100451.09;;;24.04;64.89
250;BME280;109;19.806;-70.704;2022-09-20T11:29:25;100471.53;;;24.05;64.63
250;BME280;109;19.806;-70.704;2022-09-20T11:32:00;100468.75;;;24.07;64.80
250;BME280;109;19.806;-70.704;2022-09-20T11:34:31;100463.16;;;24.12;64.88
250;BME280;109;19.806;-70.704;2022-09-20T11:37:02;100456.78;;;24.14;64.71
250;BME280;109;19.806;-70.704;2022-09-20T11:39:50;100449.28;;;24.05;64.75
250;BME280;109;19.806;-70.704;2022-09-20T11:42:24;100449.09;;;24.08;65.29
250;BME280;109;19.806;-70.704;2022-09-20T11:44:53;100464.63;;;24.01;64.82
250;BME280;109;19.806;-70.704;2022-09-20T11:53:25;100471.66;;;24.20;64.28
250;BME280;109;19.806;-70.704;2022-09-20T11:58:57;100468.91;;;24.37;64.13
250;BME280;109;19.806;-70.704;2022-09-20T12:01:28;100473.22;;;24.39;64.03
250;BME280;109;19.806;-70.704;2022-09-20T12:04:01;100474.59;;;24.47;63.87
250;BME280;109;19.806;-70.704;2022-09-20T12:06:32;100481.41;;;24.52;63.32
250;BME280;109;19.806;-70.704;2022-09-20T12:09:02;100489.44;;;24.52;63.89
250;BME280;109;19.806;-70.704;2022-09-20T12:11:38;100496.16;;;24.59;62.83
250;BME280;109;19.806;-70.704;2022-09-20T12:14:25;100504.09;;;24.61;62.60
250;BME280;109;19.806;-70.704;2022-09-20T12:16:53;100508.59;;;24.76;63.31
250;BME280;109;19.806;-70.704;2022-09-20T12:24:39;100508.84;;;24.87;62.15
250;BME280;109;19.806;-70.704;2022-09-20T12:30:13;100490.63;;;24.94;61.37
250;BME280;109;19.806;-70.704;2022-09-20T12:32:52;100499.91;;;25.02;61.81
250;BME280;109;19.806;-70.704;2022-09-20T12:41:04;100526.75;;;25.17;61.84
250;BME280;109;19.806;-70.704;2022-09-20T12:43:33;100544.28;;;25.22;63.09
250;BME280;109;19.806;-70.704;2022-09-20T12:46:01;100557.31;;;25.28;62.59
250;BME280;109;19.806;-70.704;2022-09-20T12:48:35;100565.22;;;25.31;63.08
250;BME280;109;19.806;-70.704;2022-09-20T12:51:21;100580.63;;;25.26;63.08
250;BME280;109;19.806;-70.704;2022-09-20T12:54:10;100601.28;;;25.24;62.16
250;BME280;109;19.806;-70.704;2022-09-20T12:56:38;100603.81;;;25.27;62.71
250;BME280;109;19.806;-70.704;2022-09-20T12:59:23;100618.53;;;25.36;63.09
250;BME280;109;19.806;-70.704;2022-09-20T13:01:52;100609.94;;;25.45;63.55
250;BME280;109;19.806;-70.704;2022-09-20T13:04:50;100608.69;;;25.51;62.88
250;BME280;109;19.806;-70.704;2022-09-20T13:07:52;100597.53;;;25.58;62.33
250;BME280;109;19.806;-70.704;2022-09-20T13:10:28;100591.88;;;25.63;62.97
250;BME280;109;19.806;-70.704;2022-09-20T13:13:03;100595.00;;;25.71;62.72
250;BME280;109;19.806;-70.704;2022-09-20T13:15:36;100592.69;;;25.79;62.84
250;BME280;109;19.806;-70.704;2022-09-20T13:18:04;100577.38;;;25.81;63.38
250;BME280;109;19.806;-70.704;2022-09-20T13:20:31;100602.69;;;25.91;63.36
250;BME280;109;19.806;-70.704;2022-09-20T13:23:00;100609.44;;;25.98;63.73
250;BME280;109;19.806;-70.704;2022-09-20T13:25:29;100609.72;;;26.08;63.33
250;BME280;109;19.806;-70.704;2022-09-20T13:28:06;100602.28;;;26.13;63.04
250;BME280;109;19.806;-70.704;2022-09-20T13:30:34;100606.78;;;26.27;63.26
250;BME280;109;19.806;-70.704;2022-09-20T13:33:22;100604.94;;;26.27;61.79
250;BME280;109;19.806;-70.704;2022-09-20T13:35:54;100609.06;;;26.33;62.12
250;BME280;109;19.806;-70.704;2022-09-20T13:38:25;100600.28;;;26.45;62.25
250;BME280;109;19.806;-70.704;2022-09-20T13:41:04;100598.94;;;26.52;61.41
250;BME280;109;19.806;-70.704;2022-09-20T13:43:43;100609.84;;;26.63;61.66
250;BME280;109;19.806;-70.704;2022-09-20T13:48:47;100598.31;;;26.75;61.43
250;BME280;109;19.806;-70.704;2022-09-20T13:51:27;100614.78;;;26.83;62.68
250;BME280;109;19.806;-70.704;2022-09-20T13:54:31;100617.00;;;26.91;61.96
250;BME280;109;19.806;-70.704;2022-09-20T13:57:01;100631.56;;;27.01;62.37
250;BME280;109;19.806;-70.704;2022-09-20T13:59:32;100629.84;;;27.00;61.89
250;BME280;109;19.806;-70.704;2022-09-20T14:02:00;100636.84;;;27.03;62.93
250;BME280;109;19.806;-70.704;2022-09-20T14:04:28;100630.59;;;27.02;62.06
250;BME280;109;19.806;-70.704;2022-09-20T14:06:57;100629.50;;;27.05;62.57
250;BME280;109;19.806;-70.704;2022-09-20T14:09:37;100633.06;;;27.05;61.43
250;BME280;109;19.806;-70.704;2022-09-20T14:12:05;100640.53;;;27.14;61.79
250;BME280;109;19.806;-70.704;2022-09-20T14:14:32;100632.94;;;27.21;61.90
250;BME280;109;19.806;-70.704;2022-09-20T14:17:04;100642.38;;;27.14;61.58
250;BME280;109;19.806;-70.704;2022-09-20T14:19:38;100661.19;;;27.14;61.21
250;BME280;109;19.806;-70.704;2022-09-20T14:22:06;100662.38;;;27.23;62.22
250;BME280;109;19.806;-70.704;2022-09-20T14:24:34;100665.22;;;27.34;62.48
250;BME280;109;19.806;-70.704;2022-09-20T14:27:18;100656.88;;;27.38;61.12
250;BME280;109;19.806;-70.704;2022-09-20T14:29:47;100657.59;;;27.54;61.80
250;BME280;109;19.806;-70.704;2022-09-20T14:37:35;100663.78;;;27.42;59.27
250;BME280;109;19.806;-70.704;2022-09-20T14:40:23;100669.31;;;27.53;60.51
250;BME280;109;19.806;-70.704;2022-09-20T14:43:04;100666.09;;;27.61;60.36
250;BME280;109;19.806;-70.704;2022-09-20T14:45:36;100665.44;;;27.58;60.27
250;BME280;109;19.806;-70.704;2022-09-20T14:53:52;100660.97;;;27.71;61.65
250;BME280;109;19.806;-70.704;2022-09-20T14:56:47;100652.38;;;27.66;60.95
250;BME280;109;19.806;-70.704;2022-09-20T14:59:26;100663.97;;;27.66;61.08
250;BME280;109;19.806;-70.704;2022-09-20T15:04:25;100666.88;;;27.63;61.55
250;BME280;109;19.806;-70.704;2022-09-20T15:06:54;100659.19;;;27.57;61.42
250;BME280;109;19.806;-70.704;2022-09-20T15:09:22;100649.78;;;27.64;62.75
250;BME280;109;19.806;-70.704;2022-09-20T15:12:31;100646.22;;;27.64;61.38
250;BME280;109;19.806;-70.704;2022-09-20T15:14:51;100630.97;;;27.64;61.88
250;BME280;109;19.806;-70.704;2022-09-20T15:17:19;100627.59;;;27.61;61.80
250;BME280;109;19.806;-70.704;2022-09-20T15:19:47;100631.34;;;27.58;61.23
250;BME280;109;19.806;-70.704;2022-09-20T15:22:14;100621.81;;;27.67;60.86
250;BME280;109;19.806;-70.704;2022-09-20T15:24:41;100618.88;;;27.57;61.21
250;BME280;109;19.806;-70.704;2022-09-20T15:27:10;100616.78;;;27.75;61.03
250;BME280;109;19.806;-70.704;2022-09-20T15:29:37;100615.38;;;27.69;59.90
250;BME280;109;19.806;-70.704;2022-09-20T15:32:04;100618.50;;;27.76;60.38
250;BME280;109;19.806;-70.704;2022-09-20T15:34:31;100610.03;;;27.82;61.06
250;BME280;109;19.806;-70.704;2022-09-20T15:36:57;100615.50;;;27.80;61.42
250;BME280;109;19.806;-70.704;2022-09-20T15:39:24;100611.19;;;27.78;61.59
250;BME280;109;19.806;-70.704;2022-09-20T15:41:51;100605.47;;;27.70;61.33
250;BME280;109;19.806;-70.704;2022-09-20T15:44:18;100598.38;;;27.69;60.11
250;BME280;109;19.806;-70.704;2022-09-20T15:46:45;100617.75;;;27.74;60.71
250;BME280;109;19.806;-70.704;2022-09-20T15:49:13;100621.19;;;27.76;59.86
250;BME280;109;19.806;-70.704;2022-09-20T15:51:39;100626.13;;;27.69;59.77
250;BME280;109;19.806;-70.704;2022-09-20T15:54:06;100630.47;;;27.97;60.15
250;BME280;109;19.806;-70.704;2022-09-20T15:56:36;100632.22;;;28.11;59.39
250;BME280;109;19.806;-70.704;2022-09-20T15:59:10;100627.28;;;28.05;59.31
250;BME280;109;19.806;-70.704;2022-09-20T16:01:41;100635.88;;;28.10;59.13
250;BME280;109;19.806;-70.704;2022-09-20T16:04:15;100639.56;;;28.21;59.38
250;BME280;109;19.806;-70.704;2022-09-20T16:06:46;100636.97;;;28.33;59.75
250;BME280;109;19.806;-70.704;2022-09-20T16:09:13;100633.63;;;28.42;59.19
250;BME280;109;19.806;-70.704;2022-09-20T16:11:40;100638.56;;;28.48;59.25
250;BME280;109;19.806;-70.704;2022-09-20T16:14:06;100641.28;;;28.48;58.47
250;BME280;109;19.806;-70.704;2022-09-20T16:16:34;100650.66;;;28.55;57.91
250;BME280;109;19.806;-70.704;2022-09-20T16:19:00;100653.97;;;28.46;60.37
250;BME280;109;19.806;-70.704;2022-09-20T16:21:44;100651.06;;;28.23;60.49
250;BME280;109;19.806;-70.704;2022-09-20T16:24:18;100654.59;;;28.11;59.59
250;BME280;109;19.806;-70.704;2022-09-20T16:26:47;100642.00;;;28.12;60.22
250;BME280;109;19.806;-70.704;2022-09-20T16:29:13;100646.53;;;28.11;59.66
250;BME280;109;19.806;-70.704;2022-09-20T16:31:46;100639.97;;;28.15;60.97
250;BME280;109;19.806;-70.704;2022-09-20T16:34:24;100646.00;;;28.19;61.06
250;BME280;109;19.806;-70.704;2022-09-20T16:37:02;100641.50;;;28.19;60.33
250;BME280;109;19.806;-70.704;2022-09-20T16:39:31;100645.16;;;28.18;59.83
250;BME280;109;19.806;-70.704;2022-09-20T16:41:59;100645.91;;;28.20;59.69
250;BME280;109;19.806;-70.704;2022-09-20T16:44:35;100646.88;;;28.19;59.61
250;BME280;109;19.806;-70.704;2022-09-20T16:47:04;100645.56;;;28.25;60.90
250;BME280;109;19.806;-70.704;2022-09-20T16:49:35;100637.59;;;28.23;60.72
250;BME280;109;19.806;-70.704;2022-09-20T16:52:06;100644.69;;;28.24;61.25
250;BME280;109;19.806;-70.704;2022-09-20T16:54:34;100638.47;;;28.24;60.67
250;BME280;109;19.806;-70.704;2022-09-20T16:57:01;100643.94;;;28.22;61.26
250;BME280;109;19.806;-70.704;2022-09-20T16:59:28;100637.59;;;28.23;60.59
250;BME280;109;19.806;-70.704;2022-09-20T17:01:54;100645.78;;;28.22;59.39
250;BME280;109;19.806;-70.704;2022-09-20T17:04:20;100627.47;;;28.27;59.87
250;BME280;109;19.806;-70.704;2022-09-20T17:06:48;100630.38;;;28.37;60.39
250;BME280;109;19.806;-70.704;2022-09-20T17:09:15;100612.09;;;28.42;60.67
250;BME280;109;19.806;-70.704;2022-09-20T17:11:46;100608.13;;;28.47;60.18
250;BME280;109;19.806;-70.704;2022-09-20T17:14:16;100593.25;;;28.54;60.67
250;BME280;109;19.806;-70.704;2022-09-20T17:16:43;100578.50;;;28.60;59.91
250;BME280;109;19.806;-70.704;2022-09-20T17:19:15;100575.00;;;28.71;60.18
250;BME280;109;19.806;-70.704;2022-09-20T17:21:44;100555.28;;;28.70;60.69
250;BME280;109;19.806;-70.704;2022-09-20T17:24:16;100544.03;;;28.76;60.65
250;BME280;109;19.806;-70.704;2022-09-20T17:26:43;100527.88;;;28.76;60.28
250;BME280;109;19.806;-70.704;2022-09-20T17:29:14;100518.72;;;28.79;59.74
250;BME280;109;19.806;-70.704;2022-09-20T17:31:47;100522.91;;;28.83;59.85
250;BME280;109;19.806;-70.704;2022-09-20T17:34:14;100522.50;;;28.76;60.77
250;BME280;109;19.806;-70.704;2022-09-20T17:36:44;100512.69;;;28.75;60.91
250;BME280;109;19.806;-70.704;2022-09-20T17:39:11;100515.88;;;28.69;61.57
250;BME280;109;19.806;-70.704;2022-09-20T17:41:39;100521.59;;;28.65;60.23
250;BME280;109;19.806;-70.704;2022-09-20T17:44:06;100512.84;;;28.61;60.53
250;BME280;109;19.806;-70.704;2022-09-20T17:46:36;100498.72;;;28.46;61.49
250;BME280;109;19.806;-70.704;2022-09-20T17:49:08;100496.75;;;28.36;60.98
250;BME280;109;19.806;-70.704;2022-09-20T17:51:40;100493.38;;;28.21;60.87
250;BME280;109;19.806;-70.704;2022-09-20T17:54:08;100495.63;;;28.14;60.88
250;BME280;109;19.806;-70.704;2022-09-20T17:56:42;100497.03;;;28.20;61.29
250;BME280;109;19.806;-70.704;2022-09-20T17:59:11;100494.31;;;28.33;60.33
250;BME280;109;19.806;-70.704;2022-09-20T18:01:38;100494.53;;;28.30;59.76
250;BME280;109;19.806;-70.704;2022-09-20T18:04:06;100500.00;;;28.41;59.76
250;BME280;109;19.806;-70.704;2022-09-20T18:06:35;100499.97;;;28.53;59.62
250;BME280;109;19.806;-70.704;2022-09-20T18:09:05;100497.19;;;28.55;59.53
250;BME280;109;19.806;-70.704;2022-09-20T18:11:34;100484.09;;;28.61;59.33
250;BME280;109;19.806;-70.704;2022-09-20T18:14:02;100499.50;;;28.72;59.64
250;BME280;109;19.806;-70.704;2022-09-20T18:16:29;100502.78;;;28.76;58.37
250;BME280;109;19.806;-70.704;2022-09-20T18:18:56;100501.81;;;28.77;58.19
250;BME280;109;19.806;-70.704;2022-09-20T18:21:26;100496.63;;;28.86;58.55
250;BME280;109;19.806;-70.704;2022-09-20T18:23:53;100499.06;;;28.89;58.24
250;BME280;109;19.806;-70.704;2022-09-20T18:26:25;100492.69;;;28.90;58.36
250;BME280;109;19.806;-70.704;2022-09-20T18:29:12;100497.72;;;28.84;58.13
250;BME280;109;19.806;-70.704;2022-09-20T18:31:49;100501.41;;;28.94;58.59
250;BME280;109;19.806;-70.704;2022-09-20T18:34:18;100494.63;;;28.88;58.67
250;BME280;109;19.806;-70.704;2022-09-20T18:36:50;100494.63;;;28.88;58.53
250;BME280;109;19.806;-70.704;2022-09-20T18:39:21;100490.13;;;28.89;58.24